Montgomery/Maxwell AFB, Alabama
Current Conditions -  °F | °C
As of 2:59 AM on Saturday 20 Dec 2014 (Local Time) from KMXF Reporting Station
Light Rain Light Rain  
Wind Chill: 45°   Ceiling: 3400
Heat Index: 45°   Visibility: 10mi
Dew Point: 43°   Wind: 3mph
Humidity: 93%   Direction: 30°NNE
Pressure: 30.12"   Gusts: NA
Location:  32.38°N, 86.37°W
Report Text: KMXF 200859Z AUTO 03003KT 10SM -RA OVC034 07/06 A3012 RMK AO2 RAB0758E0819DZB0819E0826
Loading
Personal Weather Stations






























Interactive Weather Map New forecast layout! Learn more

10-Day Weather Forecast

Advertisements
Track Severe Weather on mobile